Time;durP1;ratioP1;P1;durP2;ratioP2;P2;SDS_P1;SDS_P2;PMS_P1;PMS_P2;Temp;Humidity;BMP_temperature;BMP_pressure;BME280_temperature;BME280_humidity;BME280_pressure;Samples;Min_cycle;Max_cycle;Signal;HPM_P1;HPM_P2
2022/11/21 00:00:09;;;;;;;16.90;12.77;;;-2.70;99.90;;;;;;5007875;28;20522;-54
2022/11/21 00:02:36;;;;;;;18.90;15.40;;;-2.80;99.90;;;;;;4999623;28;20457;-54
2022/11/21 00:05:02;;;;;;;15.50;13.83;;;-2.70;99.90;;;;;;5002911;28;21017;-54
2022/11/21 00:07:29;;;;;;;11.77;10.57;;;-2.70;99.90;;;;;;5006861;28;20569;-55
2022/11/21 00:09:55;;;;;;;13.20;10.53;;;-2.70;99.90;;;;;;5008357;28;20499;-54
2022/11/21 00:12:22;;;;;;;13.63;11.50;;;-2.70;99.90;;;;;;5008137;28;20519;-54
2022/11/21 00:14:49;;;;;;;11.77;10.57;;;-2.60;99.90;;;;;;5004019;28;20515;-54
2022/11/21 00:17:17;;;;;;;12.07;10.80;;;-2.60;99.90;;;;;;5009550;28;20513;-54
2022/11/21 00:19:44;;;;;;;11.07;9.97;;;-2.60;99.90;;;;;;5004207;28;20456;-56
2022/11/21 00:22:10;;;;;;;11.23;10.03;;;-2.60;99.90;;;;;;5006880;28;20489;-55
2022/11/21 00:24:38;;;;;;;12.27;10.97;;;-2.60;99.90;;;;;;5006233;28;20491;-55
2022/11/21 00:27:04;;;;;;;12.97;10.80;;;-2.60;99.90;;;;;;5006220;28;20966;-55
2022/11/21 00:29:31;;;;;;;34.40;21.90;;;-2.60;99.90;;;;;;5002000;28;20565;-53
2022/11/21 00:31:57;;;;;;;31.33;20.30;;;-2.50;99.90;;;;;;5006041;28;20515;-55
2022/11/21 00:34:25;;;;;;;17.97;14.17;;;-2.50;99.90;;;;;;5003015;28;20534;-54
2022/11/21 00:36:52;;;;;;;31.20;20.50;;;-2.40;99.90;;;;;;5007201;28;20495;-54
2022/11/21 00:39:18;;;;;;;27.00;18.07;;;-2.40;99.90;;;;;;5009727;28;20995;-54
2022/11/21 00:41:45;;;;;;;21.70;15.33;;;-2.50;99.90;;;;;;5007014;28;21286;-53
2022/11/21 00:44:12;;;;;;;17.70;14.23;;;-2.50;99.90;;;;;;5003935;28;21086;-54
2022/11/21 00:46:38;;;;;;;16.20;13.10;;;-2.50;99.90;;;;;;5005053;28;20989;-53
2022/11/21 00:49:05;;;;;;;16.97;13.47;;;-2.50;99.90;;;;;;5001926;28;20881;-55
2022/11/21 00:51:32;;;;;;;17.27;12.27;;;-2.60;99.90;;;;;;5003875;28;20582;-54
2022/11/21 00:53:59;;;;;;;13.93;11.00;;;-2.50;99.90;;;;;;5004207;28;20986;-54
2022/11/21 00:56:26;;;;;;;12.77;10.63;;;-2.50;99.90;;;;;;5003122;28;20621;-53
2022/11/21 00:58:52;;;;;;;12.47;11.17;;;-2.50;99.90;;;;;;5006427;28;20503;-54
2022/11/21 01:01:19;;;;;;;10.17;9.10;;;-2.40;99.90;;;;;;5007928;28;20488;-54
2022/11/21 01:03:45;;;;;;;12.17;10.87;;;-2.30;99.90;;;;;;5008028;28;20917;-54
2022/11/21 01:06:14;;;;;;;12.20;11.00;;;-2.30;99.90;;;;;;5003470;28;20468;-54
2022/11/21 01:08:44;;;;;;;11.87;10.20;;;-2.20;99.90;;;;;;5001545;28;20498;-55
2022/11/21 01:11:12;;;;;;;11.13;9.97;;;-2.20;99.90;;;;;;5002692;28;21068;-54
2022/11/21 01:13:39;;;;;;;17.90;10.27;;;-2.20;99.90;;;;;;5007167;28;20519;-54
2022/11/21 01:16:07;;;;;;;11.10;9.90;;;-2.10;99.90;;;;;;5001682;28;20488;-54
2022/11/21 01:18:34;;;;;;;10.70;9.60;;;-2.10;99.90;;;;;;5008382;28;20542;-53
2022/11/21 01:21:01;;;;;;;12.00;10.80;;;-2.10;99.90;;;;;;5006412;28;20521;-55
2022/11/21 01:23:28;;;;;;;10.90;9.40;;;-2.00;99.90;;;;;;5005995;28;20519;-55
2022/11/21 01:26:01;;;;;;;11.30;10.10;;;-2.00;99.90;;;;;;5008052;28;20896;-56
2022/11/21 01:28:28;;;;;;;10.10;8.60;;;-2.00;99.90;;;;;;5007360;28;20498;-54
2022/11/21 01:30:54;;;;;;;12.20;9.30;;;-2.00;99.90;;;;;;5004127;28;20495;-55
2022/11/21 01:33:21;;;;;;;10.63;9.50;;;-2.00;99.90;;;;;;5003798;28;20539;-51
2022/11/21 01:35:47;;;;;;;11.70;10.30;;;-1.90;99.90;;;;;;5008543;28;20981;-51
2022/11/21 01:38:14;;;;;;;15.77;12.37;;;-1.90;99.90;;;;;;5004188;28;20890;-52
2022/11/21 01:40:40;;;;;;;13.40;9.77;;;-1.90;99.90;;;;;;5002942;28;20562;-52
2022/11/21 01:43:13;;;;;;;10.80;9.40;;;-1.90;99.90;;;;;;5007861;28;20507;-53
2022/11/21 01:45:55;;;;;;;10.07;8.97;;;-1.90;99.90;;;;;;5004705;28;20539;-51
2022/11/21 01:48:28;;;;;;;13.30;10.07;;;-1.80;99.90;;;;;;5001199;28;20993;-51
2022/11/21 01:50:56;;;;;;;11.20;9.97;;;-1.80;99.90;;;;;;5003551;28;20524;-51
2022/11/21 01:53:23;;;;;;;10.83;9.17;;;-1.90;99.90;;;;;;4997615;28;20488;-52
2022/11/21 01:55:50;;;;;;;12.10;10.17;;;-1.80;99.90;;;;;;5005910;28;21293;-51
2022/11/21 01:58:18;;;;;;;11.03;9.83;;;-1.80;99.90;;;;;;5007913;28;20950;-51
2022/11/21 02:00:46;;;;;;;11.63;9.73;;;-1.70;99.90;;;;;;5008780;28;20545;-51
2022/11/21 02:03:17;;;;;;;11.20;10.10;;;-1.80;99.90;;;;;;5009922;28;21009;-51
2022/11/21 02:05:43;;;;;;;12.77;9.90;;;-1.70;99.90;;;;;;5008309;28;20945;-51
2022/11/21 02:08:15;;;;;;;10.90;9.80;;;-1.70;99.90;;;;;;5014847;28;20495;-51
2022/11/21 02:10:47;;;;;;;12.33;10.33;;;-1.70;99.90;;;;;;5013358;28;20491;-52
2022/11/21 02:13:14;;;;;;;12.63;10.50;;;-1.70;99.90;;;;;;5008505;28;21174;-52
2022/11/21 02:15:42;;;;;;;11.47;9.77;;;-1.70;99.90;;;;;;5003466;28;20941;-51
2022/11/21 02:18:09;;;;;;;12.00;10.13;;;-1.70;99.90;;;;;;5012149;28;20549;-51
2022/11/21 02:20:37;;;;;;;12.60;11.07;;;-1.70;99.90;;;;;;5007425;28;20464;-51
2022/11/21 02:23:10;;;;;;;10.90;9.80;;;-1.70;99.90;;;;;;5006817;28;20491;-52
2022/11/21 02:25:41;;;;;;;13.20;10.33;;;-1.60;99.90;;;;;;5005985;28;20487;-52
2022/11/21 02:28:12;;;;;;;13.10;11.13;;;-1.60;99.90;;;;;;5013256;28;20542;-51
2022/11/21 02:30:40;;;;;;;12.47;10.43;;;-1.60;99.90;;;;;;5009569;28;20867;-51
2022/11/21 02:33:07;;;;;;;12.97;9.93;;;-1.70;99.90;;;;;;5003392;28;20549;-51
2022/11/21 02:35:34;;;;;;;11.70;10.50;;;-1.70;99.90;;;;;;5013809;28;20514;-51
2022/11/21 02:38:05;;;;;;;12.83;11.20;;;-1.70;99.90;;;;;;5005582;28;20534;-51
2022/11/21 02:40:34;;;;;;;12.67;11.30;;;-1.60;99.90;;;;;;5008205;28;20533;-51
2022/11/21 02:43:10;;;;;;;12.83;10.90;;;-1.60;99.90;;;;;;5011249;28;20987;-51
2022/11/21 02:45:40;;;;;;;14.10;11.20;;;-1.60;99.90;;;;;;4998629;28;20490;-52
2022/11/21 02:48:07;;;;;;;14.27;10.70;;;-1.60;99.90;;;;;;5010241;28;20455;-51
2022/11/21 02:50:35;;;;;;;14.43;10.23;;;-1.60;99.90;;;;;;5008696;28;20517;-51
2022/11/21 02:53:02;;;;;;;14.63;10.83;;;-1.60;99.90;;;;;;4998385;28;21079;-51
2022/11/21 02:55:29;;;;;;;17.47;10.07;;;-1.60;99.90;;;;;;4998650;28;20492;-51
2022/11/21 02:57:55;;;;;;;14.27;10.87;;;-1.60;99.90;;;;;;5006082;28;20484;-51
2022/11/21 03:00:24;;;;;;;11.73;10.60;;;-1.60;99.90;;;;;;5010688;28;20464;-51
2022/11/21 03:02:52;;;;;;;11.57;10.10;;;-1.60;99.90;;;;;;5002854;28;20460;-51
2022/11/21 03:05:20;;;;;;;13.53;11.47;;;-1.60;99.90;;;;;;5009961;28;20456;-51
2022/11/21 03:07:47;;;;;;;12.20;10.93;;;-1.60;99.90;;;;;;5010411;28;20472;-51
2022/11/21 03:10:15;;;;;;;12.60;11.27;;;-1.60;99.90;;;;;;5010395;28;20459;-51
2022/11/21 03:12:42;;;;;;;13.37;11.57;;;-1.60;99.90;;;;;;5007111;28;20959;-51
2022/11/21 03:15:11;;;;;;;12.90;11.23;;;-1.60;99.90;;;;;;4998630;28;20484;-51
2022/11/21 03:17:40;;;;;;;11.93;10.70;;;-1.60;99.90;;;;;;5008588;28;20472;-52
2022/11/21 03:20:07;;;;;;;14.10;10.33;;;-1.50;99.90;;;;;;5004642;28;20598;-51
2022/11/21 03:22:34;;;;;;;11.60;10.50;;;-1.50;99.90;;;;;;5004086;28;20463;-51
2022/11/21 03:25:01;;;;;;;14.80;11.10;;;-1.60;99.90;;;;;;5005560;28;20519;-51
2022/11/21 03:27:28;;;;;;;12.40;11.10;;;-1.60;99.90;;;;;;5011578;28;20502;-52
2022/11/21 03:29:54;;;;;;;15.30;12.83;;;-1.50;99.90;;;;;;5013333;28;20468;-51
2022/11/21 03:32:21;;;;;;;15.27;12.57;;;-1.50;99.90;;;;;;5007197;28;20541;-51
2022/11/21 03:34:49;;;;;;;15.90;12.67;;;-1.50;99.90;;;;;;5006802;28;20566;-51
2022/11/21 03:37:15;;;;;;;16.03;12.20;;;-1.50;99.90;;;;;;4997251;28;20545;-52
2022/11/21 03:39:42;;;;;;;12.50;11.10;;;-1.50;99.90;;;;;;5010912;28;20455;-51
2022/11/21 03:42:09;;;;;;;14.00;10.93;;;-1.50;99.90;;;;;;5007716;28;20451;-51
2022/11/21 03:44:35;;;;;;;11.40;10.20;;;-1.50;99.90;;;;;;4998316;28;20961;-51
2022/11/21 03:47:02;;;;;;;12.10;10.80;;;-1.50;99.90;;;;;;5009467;28;20961;-51
2022/11/21 03:49:28;;;;;;;16.00;11.77;;;-1.50;99.90;;;;;;5005452;28;20471;-52
2022/11/21 03:51:56;;;;;;;12.40;10.93;;;-1.50;99.90;;;;;;5008880;28;20520;-51
2022/11/21 03:54:23;;;;;;;15.77;12.13;;;-1.50;99.90;;;;;;5003460;28;20535;-51
2022/11/21 03:56:49;;;;;;;13.30;11.70;;;-1.50;99.90;;;;;;5001710;28;20962;-51
2022/11/21 03:59:16;;;;;;;15.07;12.10;;;-1.40;99.90;;;;;;5006896;28;20838;-51
2022/11/21 04:01:43;;;;;;;14.17;11.37;;;-1.40;99.90;;;;;;5004485;28;20464;-51
2022/11/21 04:04:09;;;;;;;12.20;10.90;;;-1.40;99.90;;;;;;5009507;28;20507;-50
2022/11/21 04:06:36;;;;;;;16.77;11.00;;;-1.50;99.90;;;;;;5007146;28;20889;-52
2022/11/21 04:09:04;;;;;;;12.87;11.47;;;-1.50;99.90;;;;;;5009506;28;20459;-51
2022/11/21 04:11:30;;;;;;;13.53;12.10;;;-1.50;99.90;;;;;;5004136;28;20500;-51
2022/11/21 04:13:57;;;;;;;11.90;10.33;;;-1.50;99.90;;;;;;5003249;28;20502;-51
2022/11/21 04:16:24;;;;;;;12.63;11.33;;;-1.50;99.90;;;;;;4999691;28;20488;-52
2022/11/21 04:18:50;;;;;;;13.07;11.67;;;-1.40;99.90;;;;;;4996246;28;20618;-52
2022/11/21 04:21:17;;;;;;;14.50;12.23;;;-1.50;99.90;;;;;;5006900;28;20469;-51
2022/11/21 04:23:43;;;;;;;12.43;11.23;;;-1.50;99.90;;;;;;5002059;28;20507;-52
2022/11/21 04:26:11;;;;;;;13.33;11.90;;;-1.50;99.90;;;;;;4999932;28;20985;-52
2022/11/21 04:28:38;;;;;;;12.70;10.80;;;-1.50;99.90;;;;;;5001012;28;20493;-52
2022/11/21 04:31:05;;;;;;;14.30;12.20;;;-1.50;99.90;;;;;;5005491;28;20946;-52
2022/11/21 04:33:32;;;;;;;15.57;12.60;;;-1.40;99.90;;;;;;5003926;28;20577;-52
2022/11/21 04:35:59;;;;;;;15.30;12.50;;;-1.40;99.90;;;;;;4995221;28;20509;-52
2022/11/21 04:38:26;;;;;;;14.60;11.47;;;-1.50;99.90;;;;;;5002911;28;20464;-52
2022/11/21 04:40:52;;;;;;;20.47;12.30;;;-1.40;99.90;;;;;;5002920;28;20550;-52
2022/11/21 04:43:20;;;;;;;16.20;12.77;;;-1.40;99.90;;;;;;4997891;28;20508;-51
2022/11/21 04:45:47;;;;;;;14.60;12.50;;;-1.40;99.90;;;;;;5002322;28;20553;-52
2022/11/21 04:48:13;;;;;;;18.63;12.80;;;-1.40;99.90;;;;;;4998619;28;21048;-51
2022/11/21 04:50:40;;;;;;;14.47;12.97;;;-1.40;99.90;;;;;;5009847;28;20464;-52
2022/11/21 04:53:06;;;;;;;13.17;11.80;;;-1.40;99.90;;;;;;4998220;28;20519;-53
2022/11/21 04:55:33;;;;;;;15.30;11.43;;;-1.40;99.90;;;;;;5002902;28;20502;-51
2022/11/21 04:58:00;;;;;;;13.63;11.87;;;-1.40;99.90;;;;;;5002780;28;20529;-51
2022/11/21 05:00:28;;;;;;;15.33;12.53;;;-1.40;99.90;;;;;;5007081;28;20463;-51
2022/11/21 05:02:54;;;;;;;12.30;11.00;;;-1.40;99.90;;;;;;5005626;28;20966;-52
2022/11/21 05:05:21;;;;;;;14.63;11.90;;;-1.40;99.90;;;;;;5005436;28;20462;-51
2022/11/21 05:07:47;;;;;;;13.27;11.00;;;-1.40;99.90;;;;;;5008781;28;20518;-51
2022/11/21 05:10:14;;;;;;;15.70;12.63;;;-1.40;99.90;;;;;;5003864;28;21081;-51
2022/11/21 05:15:25;;;;;;;17.03;12.73;;;-1.40;99.90;;;;;;4997192;28;20503;-51
2022/11/21 05:17:53;;;;;;;15.17;13.60;;;-1.40;99.90;;;;;;5003214;28;20499;-51
2022/11/21 05:20:19;;;;;;;13.13;11.83;;;-1.40;99.90;;;;;;5004710;28;20985;-51
2022/11/21 05:22:51;;;;;;;17.67;12.83;;;-1.50;99.90;;;;;;5003952;28;20459;-52
2022/11/21 05:25:18;;;;;;;16.00;13.10;;;-1.50;99.90;;;;;;5004955;28;20559;-52
2022/11/21 05:27:44;;;;;;;16.10;13.20;;;-1.50;99.90;;;;;;5004029;28;20467;-52
2022/11/21 05:30:12;;;;;;;21.80;16.57;;;-1.40;99.90;;;;;;5003826;28;20492;-51
2022/11/21 05:32:38;;;;;;;18.03;14.87;;;-1.40;99.90;;;;;;5003675;28;20838;-51
2022/11/21 05:35:07;;;;;;;15.33;13.70;;;-1.40;99.90;;;;;;5003163;28;20561;-52
2022/11/21 05:37:34;;;;;;;18.90;16.50;;;-1.40;99.90;;;;;;5006018;28;20470;-52
2022/11/21 05:40:00;;;;;;;16.57;14.67;;;-1.50;99.90;;;;;;5004068;28;20996;-51
2022/11/21 05:45:09;;;;;;;18.20;15.40;;;-1.40;99.90;;;;;;5007955;28;20467;-52
2022/11/21 05:47:35;;;;;;;15.77;13.77;;;-1.50;99.90;;;;;;5009800;28;20583;-51
2022/11/21 05:50:02;;;;;;;20.27;14.70;;;-1.60;99.90;;;;;;5010137;28;20459;-51
2022/11/21 05:52:30;;;;;;;18.17;13.80;;;-1.60;99.90;;;;;;5008604;28;20510;-52
2022/11/21 05:54:56;;;;;;;16.30;13.23;;;-1.70;99.90;;;;;;5011880;28;20463;-51
2022/11/21 05:57:23;;;;;;;16.33;13.97;;;-1.70;99.90;;;;;;5004278;28;20887;-51
2022/11/21 05:59:49;;;;;;;15.70;13.17;;;-1.70;99.90;;;;;;5000251;28;20977;-51
2022/11/21 06:05:00;;;;;;;16.00;13.13;;;-1.50;99.90;;;;;;4997644;28;20467;-51
2022/11/21 06:07:27;;;;;;;16.90;13.57;;;-1.40;99.90;;;;;;5006788;28;20957;-51
2022/11/21 06:09:54;;;;;;;17.80;13.70;;;-1.40;99.90;;;;;;5000262;28;20535;-52
2022/11/21 06:12:21;;;;;;;15.73;13.70;;;-1.30;99.90;;;;;;4996579;28;20558;-51
2022/11/21 06:14:47;;;;;;;20.00;14.67;;;-1.20;99.90;;;;;;5010541;28;20526;-53
2022/11/21 06:17:14;;;;;;;18.40;14.10;;;-1.20;99.90;;;;;;5000778;28;20491;-52
2022/11/21 06:19:41;;;;;;;14.63;11.97;;;-1.40;99.90;;;;;;5001085;28;20490;-50
2022/11/21 06:22:07;;;;;;;17.53;13.13;;;-1.40;99.90;;;;;;5002900;28;20517;-52
2022/11/21 06:24:34;;;;;;;17.60;14.50;;;-1.40;99.90;;;;;;4999017;28;20488;-52
2022/11/21 06:27:02;;;;;;;16.93;14.23;;;-1.40;99.90;;;;;;5006585;28;20505;-53
2022/11/21 06:29:28;;;;;;;20.80;14.93;;;-1.50;99.90;;;;;;5001493;28;20487;-52
2022/11/21 06:31:55;;;;;;;21.20;14.23;;;-1.50;99.90;;;;;;5008343;28;20499;-53
2022/11/21 06:34:21;;;;;;;17.37;14.33;;;-1.60;99.90;;;;;;5002394;28;20487;-52
2022/11/21 06:36:49;;;;;;;20.77;15.93;;;-1.60;99.90;;;;;;5005720;28;20460;-51
2022/11/21 06:39:16;;;;;;;18.50;14.90;;;-1.60;99.90;;;;;;5001034;28;20811;-52
2022/11/21 06:41:42;;;;;;;21.40;16.43;;;-1.50;99.90;;;;;;5007285;28;20526;-52
2022/11/21 06:44:10;;;;;;;23.17;16.07;;;-1.60;99.90;;;;;;5007800;28;20464;-51
2022/11/21 06:46:37;;;;;;;21.37;15.87;;;-1.50;99.90;;;;;;5006030;28;20482;-52
2022/11/21 06:49:03;;;;;;;26.07;17.00;;;-1.50;99.90;;;;;;5004868;28;20486;-53
2022/11/21 06:51:30;;;;;;;29.17;18.53;;;-1.50;99.90;;;;;;5012866;28;20451;-52
2022/11/21 06:53:58;;;;;;;32.83;18.80;;;-1.50;99.90;;;;;;5011287;28;20487;-52
2022/11/21 06:56:26;;;;;;;24.23;17.60;;;-1.50;99.90;;;;;;5013555;28;20448;-51
2022/11/21 06:58:52;;;;;;;24.07;18.13;;;-1.40;99.90;;;;;;5007710;28;20452;-51
2022/11/21 07:01:20;;;;;;;29.77;19.53;;;-1.30;99.90;;;;;;5008601;28;20505;-51
2022/11/21 07:03:47;;;;;;;30.47;19.70;;;-1.40;99.90;;;;;;5014801;28;20505;-52
2022/11/21 07:06:14;;;;;;;27.63;18.57;;;-1.30;99.90;;;;;;5013517;28;20495;-52
2022/11/21 07:08:41;;;;;;;29.43;20.17;;;-1.30;99.90;;;;;;5012351;28;20466;-52
2022/11/21 07:11:09;;;;;;;26.67;18.60;;;-1.30;99.90;;;;;;5014075;28;20901;-51
2022/11/21 07:13:35;;;;;;;29.40;20.20;;;-1.30;99.90;;;;;;5005698;28;20228;-51
2022/11/21 07:16:04;;;;;;;31.43;20.60;;;-1.30;99.90;;;;;;5011197;28;20474;-51
2022/11/21 07:18:32;;;;;;;32.20;19.97;;;-1.30;99.90;;;;;;5011304;28;20227;-51
2022/11/21 07:20:59;;;;;;;22.70;15.97;;;-1.30;99.90;;;;;;5005110;28;20502;-52
2022/11/21 07:23:25;;;;;;;23.20;17.77;;;-1.50;99.90;;;;;;5009965;28;20586;-51
2022/11/21 07:25:52;;;;;;;33.00;19.10;;;-1.40;99.90;;;;;;5012578;28;20526;-52
2022/11/21 07:28:19;;;;;;;38.20;19.40;;;-1.40;99.90;;;;;;5011752;28;20495;-51
2022/11/21 07:30:45;;;;;;;35.80;21.07;;;-1.30;99.90;;;;;;5012331;28;20553;-52
2022/11/21 07:33:12;;;;;;;33.30;19.80;;;-1.30;99.90;;;;;;5007639;28;20495;-56
2022/11/21 07:35:41;;;;;;;26.73;19.13;;;-1.40;99.90;;;;;;5002800;28;20492;-54
2022/11/21 07:38:08;;;;;;;30.83;22.10;;;-1.40;99.90;;;;;;5004759;28;20458;-53
2022/11/21 07:40:34;;;;;;;30.83;20.60;;;-1.40;99.90;;;;;;5007734;28;20526;-56
2022/11/21 07:43:02;;;;;;;29.33;20.70;;;-1.40;99.90;;;;;;5011233;28;20518;-53
2022/11/21 07:45:29;;;;;;;41.30;25.40;;;-1.30;99.90;;;;;;5003564;28;20488;-54
2022/11/21 07:47:59;;;;;;;32.83;23.33;;;-1.40;99.90;;;;;;5005120;28;20518;-55
2022/11/21 07:50:26;;;;;;;27.07;19.20;;;-1.40;99.90;;;;;;5010791;28;20460;-53
2022/11/21 07:52:58;;;;;;;29.30;20.73;;;-1.50;99.90;;;;;;5009743;28;20495;-56
2022/11/21 07:55:25;;;;;;;26.17;18.43;;;-1.40;99.90;;;;;;4997353;28;20870;-55
2022/11/21 07:57:58;;;;;;;30.90;19.10;;;-1.40;99.90;;;;;;5010300;28;20456;-55
2022/11/21 08:00:26;;;;;;;25.73;17.80;;;-1.40;99.90;;;;;;5009520;28;20473;-54
2022/11/21 08:02:52;;;;;;;21.17;15.67;;;-1.60;99.90;;;;;;5010582;28;20440;-55
2022/11/21 08:05:19;;;;;;;23.37;15.40;;;-1.70;99.90;;;;;;5005045;28;21362;-55
2022/11/21 08:07:45;;;;;;;22.83;16.00;;;-1.80;99.90;;;;;;5011616;28;20460;-55
2022/11/21 08:10:13;;;;;;;30.23;16.07;;;-1.80;99.90;;;;;;5007068;28;20456;-56
2022/11/21 08:12:40;;;;;;;18.97;14.63;;;-1.70;99.90;;;;;;5010635;28;20526;-54
2022/11/21 08:15:07;;;;;;;20.83;15.20;;;-1.80;99.90;;;;;;5009531;28;20515;-56
2022/11/21 08:17:34;;;;;;;26.50;15.73;;;-1.80;99.90;;;;;;5006557;28;20463;-54
2022/11/21 08:20:01;;;;;;;21.33;15.97;;;-1.80;99.90;;;;;;5011544;28;20463;-56
2022/11/21 08:22:28;;;;;;;21.83;16.80;;;-1.70;99.90;;;;;;5011180;28;20468;-54
2022/11/21 08:24:54;;;;;;;19.10;15.67;;;-1.70;99.90;;;;;;5011635;28;20574;-54
2022/11/21 08:27:23;;;;;;;18.60;14.97;;;-1.70;99.90;;;;;;5007366;28;20468;-55
2022/11/21 08:29:50;;;;;;;23.43;15.77;;;-1.60;99.90;;;;;;5012855;28;20440;-55
2022/11/21 08:32:16;;;;;;;25.53;16.30;;;-1.60;99.90;;;;;;5008695;28;20468;-56
2022/11/21 08:34:43;;;;;;;19.47;15.10;;;-1.60;99.90;;;;;;5006219;28;20951;-54
2022/11/21 08:37:09;;;;;;;24.90;13.07;;;-1.60;99.90;;;;;;5011024;28;20468;-55
2022/11/21 08:39:36;;;;;;;16.40;12.97;;;-1.70;99.90;;;;;;5009645;28;20614;-55
2022/11/21 08:42:03;;;;;;;19.70;13.07;;;-1.70;99.90;;;;;;5004781;28;20526;-55
2022/11/21 08:44:31;;;;;;;17.07;12.13;;;-1.70;99.90;;;;;;5007762;28;20482;-55
2022/11/21 08:46:59;;;;;;;15.90;11.50;;;-1.70;99.90;;;;;;5010259;28;20459;-55
2022/11/21 08:49:25;;;;;;;15.57;12.20;;;-1.60;99.90;;;;;;4994927;28;20958;-56
2022/11/21 08:51:52;;;;;;;15.03;11.90;;;-1.60;99.90;;;;;;5002829;28;20471;-54
2022/11/21 08:54:21;;;;;;;19.13;12.90;;;-1.60;99.90;;;;;;5008797;28;20550;-53
2022/11/21 08:56:48;;;;;;;16.90;12.43;;;-1.70;99.90;;;;;;5000477;28;20463;-54
2022/11/21 08:59:15;;;;;;;15.63;13.00;;;-1.80;99.90;;;;;;4998144;28;20875;-54
2022/11/21 09:01:43;;;;;;;17.60;12.43;;;-1.60;99.90;;;;;;5001707;28;20455;-54
2022/11/21 09:04:11;;;;;;;21.30;12.13;;;-1.60;99.90;;;;;;5006004;28;20562;-54
2022/11/21 09:06:38;;;;;;;20.60;13.90;;;-1.60;99.90;;;;;;5001975;28;20452;-56
2022/11/21 09:09:05;;;;;;;16.67;13.90;;;-1.60;99.90;;;;;;5004527;28;20505;-55
2022/11/21 09:11:32;;;;;;;16.13;11.23;;;-1.60;99.90;;;;;;4997493;28;20493;-54
2022/11/21 09:19:29;;;;;;;18.30;13.33;;;-1.50;99.90;;;;;;5000333;28;21554;-51
2022/11/21 09:21:56;;;;;;;14.87;12.27;;;-1.60;99.90;;;;;;5009129;28;20506;-52
2022/11/21 09:24:22;;;;;;;18.43;14.00;;;-1.60;99.90;;;;;;5006721;28;20506;-52
2022/11/21 09:26:49;;;;;;;34.70;22.90;;;-1.50;99.90;;;;;;4997612;28;21233;-51
2022/11/21 09:29:15;;;;;;;28.13;21.00;;;-1.50;99.90;;;;;;5006896;28;20780;-53
2022/11/21 09:31:42;;;;;;;19.83;16.27;;;-1.40;99.90;;;;;;5006010;28;20459;-52
2022/11/21 09:34:10;;;;;;;21.37;14.40;;;-1.30;99.90;;;;;;4994669;28;20530;-51
2022/11/21 09:36:37;;;;;;;17.03;13.80;;;-1.30;99.90;;;;;;5005604;28;20488;-53
2022/11/21 09:39:04;;;;;;;17.50;14.33;;;-1.20;99.90;;;;;;5003223;28;20460;-53
2022/11/21 09:41:51;;;;;;;14.77;12.93;;;-1.20;99.90;;;;;;5010638;28;20647;-53
2022/11/21 09:44:40;;;;;;;16.70;12.60;;;-1.20;99.90;;;;;;5008297;28;20894;-52
2022/11/21 09:47:22;;;;;;;17.03;13.00;;;-1.10;99.90;;;;;;4995804;28;20839;-52
2022/11/21 09:49:55;;;;;;;15.87;12.47;;;-1.10;99.90;;;;;;4999544;28;20466;-51
2022/11/21 09:52:26;;;;;;;19.10;14.50;;;-1.20;99.90;;;;;;5000542;28;20462;-52
2022/11/21 09:54:58;;;;;;;16.80;13.80;;;-1.20;99.90;;;;;;5008528;28;20858;-51
2022/11/21 09:57:26;;;;;;;15.07;12.47;;;-1.10;99.90;;;;;;5007543;28;20451;-53
2022/11/21 09:59:54;;;;;;;16.63;13.53;;;-1.10;99.90;;;;;;5005453;28;20941;-52
2022/11/21 10:02:23;;;;;;;18.00;13.37;;;-1.00;99.90;;;;;;5001292;28;20510;-52
2022/11/21 10:04:51;;;;;;;16.67;13.53;;;-1.00;99.90;;;;;;5008953;28;20530;-52
2022/11/21 10:07:22;;;;;;;19.87;15.20;;;-1.00;99.90;;;;;;5000107;28;20619;-51
2022/11/21 10:10:03;;;;;;;21.73;16.43;;;-1.00;99.90;;;;;;5002543;28;20456;-52
2022/11/21 10:12:37;;;;;;;17.47;13.97;;;-1.00;99.90;;;;;;5000764;28;20490;-52
2022/11/21 10:15:19;;;;;;;18.23;14.13;;;-0.90;99.90;;;;;;5000250;28;20484;-51
2022/11/21 10:17:59;;;;;;;16.87;13.60;;;-0.90;99.90;;;;;;4996866;28;20895;-51
2022/11/21 10:20:41;;;;;;;18.93;14.97;;;-0.90;99.90;;;;;;5001757;28;20577;-51
2022/11/21 10:23:31;;;;;;;19.57;14.00;;;-0.80;99.90;;;;;;5002528;28;20577;-52
2022/11/21 10:26:12;;;;;;;17.70;13.40;;;-0.70;99.90;;;;;;5001409;28;21139;-53
2022/11/21 10:28:44;;;;;;;17.07;14.57;;;-0.80;99.90;;;;;;5002159;28;20452;-52
2022/11/21 10:31:12;;;;;;;17.37;13.83;;;-0.80;99.90;;;;;;5007444;28;20459;-52
2022/11/21 10:33:40;;;;;;;20.10;15.53;;;-0.70;99.90;;;;;;5009410;28;20479;-52
2022/11/21 10:36:16;;;;;;;18.87;13.73;;;-0.70;99.90;;;;;;5004932;28;20459;-52
2022/11/21 10:38:44;;;;;;;22.73;17.13;;;-0.60;99.90;;;;;;5000280;28;20495;-52
2022/11/21 10:41:17;;;;;;;18.20;15.37;;;-0.50;99.90;;;;;;5008393;28;20452;-53
2022/11/21 10:46:34;;;;;;;21.27;14.60;;;-0.60;99.90;;;;;;5009875;28;20478;-52
2022/11/21 10:49:02;;;;;;;23.80;14.23;;;-0.60;99.90;;;;;;5006627;28;20456;-52
2022/11/21 10:51:40;;;;;;;17.33;13.37;;;-0.50;99.90;;;;;;5008756;28;20452;-51
2022/11/21 10:56:54;;;;;;;16.70;13.07;;;-0.50;99.90;;;;;;5002659;28;20975;-52
2022/11/21 10:59:24;;;;;;;18.50;13.60;;;-0.50;99.90;;;;;;5009008;28;20459;-52
2022/11/21 11:01:56;;;;;;;19.30;14.40;;;-0.50;99.90;;;;;;5007280;28;20460;-56
2022/11/21 11:04:23;;;;;;;17.03;13.10;;;-0.50;99.90;;;;;;5006187;28;20883;-52
2022/11/21 11:06:50;;;;;;;15.90;13.30;;;-0.60;81.30;;;;;;5011597;28;20455;-53
2022/11/21 11:09:29;;;;;;;13.23;11.83;;;-0.70;72.80;;;;;;5011953;28;20518;-52
2022/11/21 11:13:32;;;;;;;18.40;11.93;;;-0.70;20.50;;;;;;5008347;28;20836;-51
2022/11/21 11:15:21;;;;;;;16.80;13.30;;;-0.80;26.30;;;;;;5003831;28;20538;-51
2022/11/21 11:17:54;;;;;;;14.87;11.73;;;-0.80;92.00;;;;;;5004388;28;20463;-52
2022/11/21 11:20:36;;;;;;;14.83;11.53;;;-0.60;99.90;;;;;;5007109;28;20549;-52
2022/11/21 11:23:23;;;;;;;14.70;11.57;;;-0.60;22.90;;;;;;5002256;28;20463;-53
2022/11/21 11:25:52;;;;;;;14.97;11.90;;;-0.50;26.80;;;;;;5006707;28;20822;-53
2022/11/21 11:28:19;;;;;;;16.47;11.17;;;-0.50;30.10;;;;;;5000982;28;20457;-52
2022/11/21 11:30:46;;;;;;;12.97;11.07;;;-0.60;37.70;;;;;;5004566;28;20447;-51
2022/11/21 11:33:30;;;;;;;14.60;11.50;;;-0.40;31.10;;;;;;5012567;28;20965;-52
2022/11/21 11:36:06;;;;;;;11.90;10.23;;;-0.50;41.10;;;;;;5013024;28;20507;-51
2022/11/21 11:38:34;;;;;;;11.10;9.47;;;-0.60;31.20;;;;;;5005291;28;20460;-53
2022/11/21 11:41:11;;;;;;;17.73;10.70;;;-0.50;25.40;;;;;;5006198;28;20523;-53
2022/11/21 11:50:09;;;;;;;14.50;11.83;;;-0.60;24.70;;;;;;5001275;28;20506;-53
2022/11/21 11:52:23;;;;;;;11.70;10.03;;;-0.70;35.40;;;;;;4995001;28;20539;-51
2022/11/21 11:55:00;;;;;;;12.03;9.50;;;-0.70;23.00;;;;;;5003124;28;20537;-52
2022/11/21 11:57:30;;;;;;;13.60;10.73;;;-0.60;21.50;;;;;;4997594;28;20973;-52
2022/11/21 12:00:04;;;;;;;12.07;10.03;;;-0.50;25.50;;;;;;5007876;28;20510;-53
2022/11/21 12:02:44;;;;;;;15.00;11.00;;;-0.60;29.80;;;;;;5005284;28;20609;-53
2022/11/21 12:05:17;;;;;;;15.23;11.53;;;-0.50;28.90;;;;;;5002744;28;20538;-52
2022/11/21 12:07:51;;;;;;;12.90;10.90;;;-0.50;27.60;;;;;;5011497;28;20499;-51
2022/11/21 12:10:26;;;;;;;12.30;10.40;;;-0.60;20.50;;;;;;5010955;28;20436;-53
2022/11/21 12:13:02;;;;;;;12.73;9.87;;;-0.60;21.40;;;;;;5011030;28;20489;-52
2022/11/21 12:15:51;;;;;;;13.53;10.37;;;-0.60;84.90;;;;;;5010404;28;20992;-53
2022/11/21 12:18:30;;;;;;;13.07;9.87;;;-0.70;32.00;;;;;;5003014;28;21008;-52
2022/11/21 12:21:03;;;;;;;13.10;10.37;;;-0.60;26.40;;;;;;5001450;28;20448;-52
2022/11/21 12:23:33;;;;;;;12.60;9.70;;;-0.70;30.40;;;;;;4999251;28;20493;-53
2022/11/21 12:26:14;;;;;;;13.33;9.97;;;-0.60;25.80;;;;;;4997524;28;20460;-53
2022/11/21 12:28:51;;;;;;;16.70;11.57;;;-0.60;23.00;;;;;;5000072;28;20988;-53
2022/11/21 12:31:27;;;;;;;10.90;9.67;;;-0.70;36.00;;;;;;4998790;28;20459;-52
2022/11/21 12:34:01;;;;;;;11.97;9.90;;;-0.60;27.70;;;;;;5003308;28;20481;-51
2022/11/21 12:36:35;;;;;;;11.13;9.90;;;-0.60;31.40;;;;;;4996344;28;20568;-51
2022/11/21 12:39:21;;;;;;;10.73;9.00;;;-0.60;27.30;;;;;;4994162;28;20464;-52
2022/11/21 12:44:58;;;;;;;16.10;11.30;;;-0.60;25.20;;;;;;5002739;28;20555;-52
2022/11/21 12:56:13;;;;;;;11.13;9.00;;;-0.80;32.80;;;;;;5002044;28;20486;-52
2022/11/21 12:58:47;;;;;;;9.77;8.77;;;-0.80;24.80;;;;;;5007581;28;20464;-52
2022/11/21 13:01:21;;;;;;;12.97;10.00;;;-0.70;24.00;;;;;;5001960;28;20825;-51
2022/11/21 13:03:56;;;;;;;9.47;7.60;;;-0.70;25.20;;;;;;5002689;28;20996;-53
2022/11/21 13:06:26;;;;;;;11.23;9.40;;;-0.70;29.00;;;;;;5006373;28;20510;-53
2022/11/21 13:08:55;;;;;;;11.53;8.30;;;-0.80;32.90;;;;;;5006640;28;20529;-52
2022/11/21 13:14:21;;;;;;;11.17;9.50;;;-0.80;34.30;;;;;;4999305;28;20470;-51
2022/11/21 13:16:54;;;;;;;9.13;8.23;;;-0.80;31.10;;;;;;5006708;28;20563;-53